createdAt,value
2024-01-17T00:00:41.044Z,17.55
2024-01-17T00:05:42.907Z,18.00
2024-01-17T00:10:44.709Z,18.92
2024-01-17T00:15:46.515Z,20.00
2024-01-17T00:20:48.523Z,19.40
2024-01-17T00:25:50.400Z,16.38
2024-01-17T00:30:52.342Z,17.92
2024-01-17T00:35:54.467Z,17.02
2024-01-17T00:40:56.546Z,15.43
2024-01-17T00:45:58.349Z,15.45
2024-01-17T00:51:00.400Z,15.20
2024-01-17T00:56:02.371Z,15.18
2024-01-17T01:01:04.411Z,19.90
2024-01-17T01:06:06.561Z,21.83
2024-01-17T01:11:08.977Z,24.60
2024-01-17T01:16:11.530Z,22.77
2024-01-17T01:21:13.535Z,22.60
2024-01-17T01:26:15.897Z,21.42
2024-01-17T01:31:17.601Z,22.75
2024-01-17T01:36:19.299Z,23.67
2024-01-17T01:41:21.387Z,26.02
2024-01-17T01:46:29.018Z,25.88
2024-01-17T01:51:30.836Z,25.52
2024-01-17T01:56:36.402Z,24.50
2024-01-17T02:01:38.408Z,20.25
2024-01-17T02:06:41.556Z,19.00
2024-01-17T02:11:43.663Z,22.25
2024-01-17T02:16:45.868Z,19.13
2024-01-17T02:21:48.001Z,20.38
2024-01-17T02:26:49.921Z,20.75
2024-01-17T02:31:52.543Z,22.40
2024-01-17T02:36:54.536Z,21.40
2024-01-17T02:41:56.365Z,25.50
2024-01-17T02:46:58.221Z,20.73
2024-01-17T02:51:59.975Z,18.65
2024-01-17T02:57:01.998Z,20.63
2024-01-17T03:02:04.027Z,16.00
2024-01-17T03:07:05.892Z,18.40
2024-01-17T03:12:07.914Z,18.75
2024-01-17T03:17:09.854Z,22.10
2024-01-17T03:22:11.706Z,18.10
2024-01-17T03:27:14.645Z,18.95
2024-01-17T03:32:16.663Z,16.75
2024-01-17T03:37:19.879Z,20.55
2024-01-17T03:42:21.762Z,19.20
2024-01-17T03:47:23.763Z,19.30
2024-01-17T03:52:25.493Z,19.80
2024-01-17T03:57:29.045Z,21.15
2024-01-17T04:02:31.072Z,19.65
2024-01-17T04:07:32.985Z,18.23
2024-01-17T04:12:34.670Z,23.00
2024-01-17T04:17:37.285Z,22.30
2024-01-17T04:22:39.354Z,28.40
2024-01-17T04:27:41.193Z,30.42
2024-01-17T04:32:43.259Z,23.95
2024-01-17T04:37:45.203Z,25.77
2024-01-17T04:42:50.343Z,25.70
2024-01-17T04:47:52.480Z,23.40
2024-01-17T04:52:54.359Z,25.02
2024-01-17T04:57:56.219Z,21.08
2024-01-17T05:02:57.986Z,19.08
2024-01-17T05:07:59.845Z,20.90
2024-01-17T05:13:01.917Z,18.55
2024-01-17T05:18:08.425Z,15.70
2024-01-17T05:23:10.416Z,17.35
2024-01-17T05:28:12.203Z,16.95
2024-01-17T05:33:15.140Z,17.38
2024-01-17T05:38:17.211Z,15.43
2024-01-17T05:43:18.979Z,14.60
2024-01-17T05:48:20.989Z,20.60
2024-01-17T05:53:23.035Z,19.60
2024-01-17T05:58:24.779Z,21.10
2024-01-17T06:03:26.733Z,22.23
2024-01-17T06:08:29.677Z,20.52
2024-01-17T06:13:31.688Z,21.35
2024-01-17T06:18:33.870Z,22.10
2024-01-17T06:23:36.054Z,22.10
2024-01-17T06:28:37.863Z,19.77
2024-01-17T06:33:40.808Z,21.05
2024-01-17T06:38:42.881Z,22.13
2024-01-17T06:43:46.288Z,24.63
2024-01-17T06:48:49.082Z,23.20
2024-01-17T06:53:51.250Z,26.13
2024-01-17T06:58:53.189Z,25.13
2024-01-17T07:03:55.207Z,23.45
2024-01-17T07:08:57.253Z,30.63
2024-01-17T07:13:59.092Z,24.00
2024-01-17T07:19:01.622Z,28.58
2024-01-17T07:24:03.735Z,29.95
2024-01-17T07:29:06.357Z,26.52
2024-01-17T07:34:08.448Z,27.55
2024-01-17T07:39:12.473Z,28.92
2024-01-17T07:44:15.421Z,28.33
2024-01-17T07:49:17.537Z,30.52
2024-01-17T07:54:19.657Z,27.27
2024-01-17T07:59:22.084Z,29.45
2024-01-17T08:04:24.451Z,28.25
2024-01-17T08:09:29.730Z,29.85
2024-01-17T08:14:31.750Z,30.00
2024-01-17T08:19:34.886Z,31.55
2024-01-17T08:24:36.893Z,30.85
2024-01-17T08:29:38.734Z,36.17
2024-01-17T08:34:40.565Z,34.85
2024-01-17T08:39:45.372Z,34.20
2024-01-17T08:44:47.271Z,32.75
2024-01-17T08:49:49.393Z,34.85
2024-01-17T08:54:51.318Z,32.10
2024-01-17T08:59:53.378Z,36.95
2024-01-17T09:04:55.344Z,28.83
2024-01-17T09:09:58.028Z,24.42
2024-01-17T09:15:00.494Z,34.63
2024-01-17T09:20:05.765Z,28.73
2024-01-17T09:25:09.550Z,35.20
2024-01-17T09:30:11.867Z,28.85
2024-01-17T09:35:14.062Z,28.45
2024-01-17T09:40:16.230Z,28.95
2024-01-17T09:45:19.569Z,27.50
2024-01-17T09:50:21.609Z,69.03
2024-01-17T09:55:25.215Z,44.08
2024-01-17T10:00:28.754Z,33.15
2024-01-17T10:05:36.865Z,32.80
2024-01-17T10:10:42.323Z,28.33
2024-01-17T10:15:48.113Z,25.73
2024-01-17T10:20:50.425Z,24.30
2024-01-17T10:25:52.645Z,25.58
2024-01-17T10:30:54.586Z,27.45
2024-01-17T10:35:56.666Z,31.77
2024-01-17T10:41:08.166Z,25.65
2024-01-17T10:46:11.190Z,24.90
2024-01-17T10:51:22.409Z,26.83
2024-01-17T10:56:28.107Z,28.23
2024-01-17T11:01:39.151Z,25.60
2024-01-17T11:06:42.433Z,25.33
2024-01-17T11:11:44.422Z,25.50
2024-01-17T11:16:50.138Z,28.67
2024-01-17T11:21:52.286Z,34.07
2024-01-17T11:27:06.391Z,27.48
2024-01-17T11:32:18.169Z,29.38
2024-01-17T11:37:40.038Z,28.67
2024-01-17T11:42:42.049Z,27.52
2024-01-17T11:47:53.974Z,28.30
2024-01-17T11:52:56.715Z,29.23
2024-01-17T11:58:00.879Z,28.08
2024-01-17T12:03:03.953Z,24.90
2024-01-17T12:08:06.624Z,21.48
2024-01-17T12:13:08.910Z,23.70
2024-01-17T12:18:11.355Z,19.60
2024-01-17T12:23:13.167Z,24.17
2024-01-17T12:28:19.934Z,22.00
2024-01-17T12:33:25.957Z,23.33
2024-01-17T12:38:30.221Z,23.40
2024-01-17T12:43:36.779Z,20.20
2024-01-17T12:53:43.121Z,18.05
2024-01-17T12:58:45.281Z,27.00
2024-01-17T13:04:00.643Z,20.23
2024-01-17T13:09:33.084Z,19.05
2024-01-17T13:14:35.264Z,22.80
2024-01-17T13:19:39.217Z,22.60
2024-01-17T13:24:41.466Z,25.13
2024-01-17T13:29:43.472Z,26.52
2024-01-17T13:34:45.746Z,23.67
2024-01-17T13:39:47.789Z,23.33
2024-01-17T13:44:49.979Z,19.67
2024-01-17T13:49:53.612Z,25.02
2024-01-17T13:54:56.884Z,22.92
2024-01-17T13:59:58.837Z,24.27
2024-01-17T14:05:00.598Z,20.60
2024-01-17T14:10:02.509Z,26.70
2024-01-17T14:15:05.797Z,25.60
2024-01-17T14:20:17.863Z,25.58
2024-01-17T14:25:20.065Z,26.55
2024-01-17T14:30:22.326Z,31.92
2024-01-17T14:35:25.120Z,23.90
2024-01-17T14:40:27.195Z,23.52
2024-01-17T14:45:29.326Z,24.92
2024-01-17T14:50:31.580Z,30.42
2024-01-17T14:55:33.944Z,29.08
2024-01-17T15:00:35.807Z,27.02
2024-01-17T15:05:37.953Z,21.08
2024-01-17T15:10:40.776Z,22.02
2024-01-17T15:15:42.783Z,22.23
2024-01-17T15:20:45.100Z,36.38
2024-01-17T15:25:47.112Z,36.15
2024-01-17T15:30:49.785Z,34.40
2024-01-17T15:35:52.568Z,31.73
2024-01-17T15:40:57.102Z,30.88
2024-01-17T15:46:00.983Z,30.08
2024-01-17T15:51:04.827Z,28.88
2024-01-17T15:56:06.879Z,26.40
2024-01-17T16:01:09.432Z,22.15
2024-01-17T16:06:11.568Z,27.00
2024-01-17T16:11:13.591Z,26.80
2024-01-17T16:16:15.368Z,27.25
2024-01-17T16:21:17.209Z,26.23
2024-01-17T16:26:19.316Z,23.25
2024-01-17T16:31:21.422Z,25.50
2024-01-17T16:36:23.658Z,21.33
2024-01-17T16:41:25.571Z,24.50
2024-01-17T16:46:27.433Z,23.75
2024-01-17T16:51:29.237Z,21.52
2024-01-17T16:56:31.285Z,22.13
2024-01-17T17:01:33.459Z,22.77
2024-01-17T17:06:35.336Z,22.75
2024-01-17T17:11:37.112Z,23.45
2024-01-17T17:16:38.847Z,25.63
2024-01-17T17:21:40.891Z,28.58
2024-01-17T17:26:43.453Z,33.28
2024-01-17T17:31:45.350Z,28.00
2024-01-17T17:36:47.199Z,28.08
2024-01-17T17:41:49.242Z,25.40
2024-01-17T17:46:51.455Z,27.30
2024-01-17T17:51:53.211Z,31.75
2024-01-17T17:56:55.294Z,28.88
2024-01-17T18:01:57.382Z,30.95
2024-01-17T18:06:59.344Z,29.80
2024-01-17T18:12:01.335Z,29.85
2024-01-17T18:17:06.431Z,30.45
2024-01-17T18:22:08.625Z,29.42
2024-01-17T18:27:10.617Z,30.88
2024-01-17T18:32:12.446Z,31.83
2024-01-17T18:37:14.258Z,36.47
2024-01-17T18:42:16.092Z,29.00
2024-01-17T18:47:18.052Z,31.08
2024-01-17T18:52:19.712Z,30.70
2024-01-17T18:57:22.045Z,49.80
2024-01-17T19:02:24.761Z,35.78
2024-01-17T19:07:26.596Z,36.80
2024-01-17T19:12:28.611Z,28.20
2024-01-17T19:17:30.790Z,37.38
2024-01-17T19:22:34.274Z,31.73
2024-01-17T19:27:37.641Z,30.17
2024-01-17T19:32:40.107Z,33.30
2024-01-17T19:37:44.619Z,33.67
2024-01-17T19:42:46.459Z,36.00
2024-01-17T19:47:48.303Z,45.95
2024-01-17T19:52:50.387Z,47.58
2024-01-17T19:57:52.495Z,42.03
2024-01-17T20:02:54.197Z,35.33
2024-01-17T20:07:57.023Z,35.15
2024-01-17T20:13:01.851Z,35.67
2024-01-17T20:18:04.038Z,34.55
2024-01-17T20:23:05.979Z,39.42
2024-01-17T20:28:07.956Z,36.25
2024-01-17T20:33:09.918Z,35.38
2024-01-17T20:38:11.808Z,35.42
2024-01-17T20:43:13.970Z,33.45
2024-01-17T20:48:16.033Z,39.50
2024-01-17T20:53:17.719Z,40.70
2024-01-17T20:58:19.573Z,39.70
2024-01-17T21:03:21.612Z,37.08
2024-01-17T21:08:23.456Z,41.10
2024-01-17T21:13:25.220Z,39.60
2024-01-17T21:18:28.262Z,38.45
2024-01-17T21:23:30.805Z,37.50
2024-01-17T21:28:32.764Z,33.40
2024-01-17T21:33:34.800Z,32.47
2024-01-17T21:38:37.038Z,38.67
2024-01-17T21:43:38.796Z,32.47
2024-01-17T21:48:45.075Z,33.30
2024-01-17T21:53:47.497Z,35.92
2024-01-17T21:58:49.586Z,31.88
2024-01-17T22:03:51.364Z,35.00
2024-01-17T22:08:58.886Z,30.35
2024-01-17T22:14:01.517Z,35.17
2024-01-17T22:19:03.684Z,33.10
2024-01-17T22:24:06.412Z,31.23
2024-01-17T22:29:09.937Z,30.45
2024-01-17T22:34:11.953Z,31.23
2024-01-17T22:39:15.938Z,30.40
2024-01-17T22:44:19.257Z,33.65
2024-01-17T22:49:23.077Z,32.33
2024-01-17T22:54:24.958Z,36.03
2024-01-17T22:59:26.790Z,31.20
2024-01-17T23:04:28.949Z,27.88
2024-01-17T23:09:31.162Z,31.73
2024-01-17T23:14:32.961Z,26.63
2024-01-17T23:19:35.007Z,29.73
2024-01-17T23:24:37.137Z,26.35
2024-01-17T23:29:38.939Z,24.98
2024-01-17T23:34:41.030Z,27.30
2024-01-17T23:39:42.893Z,30.25
2024-01-17T23:44:45.879Z,27.08
2024-01-17T23:49:47.887Z,25.42
2024-01-17T23:54:50.007Z,32.15
2024-01-17T23:59:51.784Z,26.80
